Time;durP1;ratioP1;P1;durP2;ratioP2;P2;SDS_P1;SDS_P2;PMS_P1;PMS_P2;Temp;Humidity;BMP_temperature;BMP_pressure;BME280_temperature;BME280_humidity;BME280_pressure;Samples;Min_cycle;Max_cycle;Signal;HPM_P1;HPM_P2
2022/03/10 08:48:49;;;;;;;15.87;6.67;;;14.70;91.60;;;;;;4924429;29;20256;-76
2022/03/10 08:51:16;;;;;;;14.60;6.60;;;15.00;92.10;;;;;;4930871;29;20212;-74
2022/03/10 08:53:42;;;;;;;13.67;6.50;;;14.70;91.60;;;;;;4935568;29;20221;-73
2022/03/10 08:56:09;;;;;;;18.57;7.83;;;14.70;92.60;;;;;;4936765;29;20212;-73
2022/03/10 08:58:36;;;;;;;13.63;6.53;;;14.90;92.40;;;;;;4936257;29;20687;-74
2022/03/10 09:01:03;;;;;;;14.77;6.80;;;15.30;93.00;;;;;;4936057;29;20209;-73
2022/03/10 09:03:30;;;;;;;13.57;5.63;;;14.90;91.90;;;;;;4931220;29;20230;-73
2022/03/10 09:05:58;;;;;;;12.53;5.97;;;14.80;92.30;;;;;;4925018;29;20213;-73
2022/03/10 09:08:25;;;;;;;14.73;5.43;;;14.40;92.90;;;;;;4935573;29;20287;-76
2022/03/10 09:10:52;;;;;;;14.60;5.90;;;14.70;93.30;;;;;;4935844;29;20686;-76
2022/03/10 09:13:18;;;;;;;14.57;6.37;;;14.50;92.90;;;;;;4936347;29;20235;-72
2022/03/10 09:15:46;;;;;;;14.53;6.00;;;14.50;92.60;;;;;;4935399;29;20212;-73
2022/03/10 09:18:14;;;;;;;12.10;5.90;;;14.40;93.00;;;;;;4936155;29;20260;-73
2022/03/10 09:20:41;;;;;;;14.60;6.30;;;14.20;93.20;;;;;;4936016;29;20209;-74
2022/03/10 09:23:09;;;;;;;12.23;5.77;;;14.00;93.40;;;;;;4920490;29;20237;-74
2022/03/10 09:25:37;;;;;;;15.00;6.90;;;13.80;93.60;;;;;;4917818;29;20580;-73
2022/03/10 09:28:04;;;;;;;14.53;6.13;;;13.70;94.30;;;;;;4917993;29;20572;-72
2022/03/10 09:30:31;;;;;;;14.47;6.97;;;13.20;94.60;;;;;;4918419;29;20292;-73
2022/03/10 09:32:58;;;;;;;17.60;6.90;;;12.70;94.90;;;;;;4918444;29;20252;-75
2022/03/10 09:35:25;;;;;;;14.00;5.97;;;12.90;95.60;;;;;;4917839;29;20217;-73
2022/03/10 09:37:53;;;;;;;15.50;6.97;;;13.10;95.40;;;;;;4919180;29;20209;-73
2022/03/10 09:40:21;;;;;;;14.73;6.60;;;12.90;95.30;;;;;;4936333;29;20608;-75
2022/03/10 09:42:49;;;;;;;11.90;5.43;;;12.90;95.70;;;;;;4936665;29;20248;-73
2022/03/10 09:45:17;;;;;;;19.47;6.07;;;12.70;95.70;;;;;;4936673;29;20239;-74
2022/03/10 09:47:45;;;;;;;13.73;5.80;;;12.40;96.10;;;;;;4934545;29;20220;-74
2022/03/10 09:50:14;;;;;;;12.10;5.70;;;12.50;96.60;;;;;;4936222;29;20291;-74
2022/03/10 09:52:42;;;;;;;12.83;5.73;;;12.50;96.30;;;;;;4936537;29;20640;-74
2022/03/10 09:55:09;;;;;;;10.77;4.97;;;12.60;96.40;;;;;;4925721;29;20228;-75
2022/03/10 09:57:39;;;;;;;12.20;5.20;;;12.50;96.40;;;;;;4917291;29;20673;-74
2022/03/10 10:00:07;;;;;;;14.90;5.83;;;12.60;96.50;;;;;;4916912;29;20209;-73
2022/03/10 10:02:34;;;;;;;13.60;5.60;;;12.70;95.90;;;;;;4917154;29;20743;-73
2022/03/10 10:05:01;;;;;;;13.93;5.93;;;12.70;96.10;;;;;;4917599;29;20248;-73
2022/03/10 10:07:29;;;;;;;11.97;4.77;;;12.80;96.50;;;;;;4917412;29;20581;-73
2022/03/10 10:09:58;;;;;;;11.77;4.83;;;12.80;95.80;;;;;;4917270;29;20237;-73
2022/03/10 10:12:28;;;;;;;10.30;4.73;;;12.80;96.10;;;;;;4919913;29;20710;-73
2022/03/10 10:14:58;;;;;;;11.57;5.60;;;12.70;95.80;;;;;;4916850;29;20312;-73
2022/03/10 10:17:30;;;;;;;13.80;5.50;;;12.70;96.20;;;;;;4925641;29;20213;-73
2022/03/10 10:19:58;;;;;;;15.07;5.20;;;12.90;96.10;;;;;;4934562;29;20809;-73
2022/03/10 10:22:26;;;;;;;11.33;4.70;;;13.00;95.80;;;;;;4935231;29;20229;-74
2022/03/10 10:24:55;;;;;;;11.23;5.47;;;13.10;95.80;;;;;;4933506;29;20209;-74
2022/03/10 10:27:24;;;;;;;11.50;5.20;;;13.10;95.30;;;;;;4928909;29;20220;-74
2022/03/10 10:29:53;;;;;;;11.40;5.07;;;13.10;95.40;;;;;;4935433;29;20264;-73
2022/03/10 10:32:28;;;;;;;11.40;5.17;;;13.30;95.30;;;;;;4934269;29;20583;-74
2022/03/10 10:34:59;;;;;;;10.60;5.17;;;13.40;95.10;;;;;;4935079;29;20215;-73
2022/03/10 10:37:26;;;;;;;12.10;5.40;;;13.50;95.40;;;;;;4933908;29;20197;-74
2022/03/10 10:39:56;;;;;;;12.03;5.63;;;13.30;95.00;;;;;;4916207;29;20232;-73
2022/03/10 10:42:27;;;;;;;12.97;6.13;;;13.40;95.10;;;;;;4916608;29;20316;-73
2022/03/10 10:44:54;;;;;;;12.77;4.90;;;13.30;94.60;;;;;;4928903;29;20205;-74
2022/03/10 10:47:21;;;;;;;10.20;5.20;;;13.30;95.00;;;;;;4935019;29;20220;-73
2022/03/10 10:49:58;;;;;;;9.57;4.53;;;13.50;95.70;;;;;;4934780;29;20241;-73
2022/03/10 10:52:25;;;;;;;10.83;5.57;;;13.70;95.00;;;;;;4935076;29;20251;-73
2022/03/10 10:55:05;;;;;;;15.80;5.40;;;13.90;95.00;;;;;;4933828;29;20260;-73
2022/03/10 10:57:35;;;;;;;13.57;5.53;;;14.10;94.60;;;;;;4933576;29;20204;-74
2022/03/10 11:00:11;;;;;;;11.17;5.10;;;14.10;94.30;;;;;;4933172;29;20205;-74
2022/03/10 11:02:43;;;;;;;12.50;5.77;;;14.10;94.40;;;;;;4932279;29;20584;-74
2022/03/10 11:05:14;;;;;;;11.30;4.90;;;14.20;95.10;;;;;;4934063;29;20224;-74
2022/03/10 11:07:42;;;;;;;11.47;4.70;;;14.40;94.50;;;;;;4932450;29;20672;-73
2022/03/10 11:10:11;;;;;;;14.03;5.53;;;14.30;94.20;;;;;;4929895;29;20236;-73
2022/03/10 11:12:40;;;;;;;9.77;4.50;;;14.40;94.00;;;;;;4930015;29;20224;-73
2022/03/10 11:15:08;;;;;;;10.77;4.63;;;14.40;94.10;;;;;;4931128;29;20682;-73
2022/03/10 11:17:35;;;;;;;13.80;5.23;;;14.50;94.30;;;;;;4933883;29;20196;-73
2022/03/10 11:20:07;;;;;;;10.80;4.83;;;14.60;93.80;;;;;;4933425;29;20634;-78
2022/03/10 11:22:46;;;;;;;8.80;4.27;;;14.70;94.70;;;;;;4927647;29;20560;-73
2022/03/10 11:25:30;;;;;;;11.67;4.67;;;14.80;93.90;;;;;;4930084;29;20208;-77
2022/03/10 11:28:02;;;;;;;11.40;5.13;;;14.80;94.20;;;;;;4929987;29;20205;-75
2022/03/10 11:30:31;;;;;;;9.63;4.50;;;14.80;93.30;;;;;;4932752;29;20229;-76
2022/03/10 11:33:03;;;;;;;11.03;5.00;;;14.80;93.40;;;;;;4924499;29;20233;-75
2022/03/10 11:35:32;;;;;;;9.93;4.33;;;14.70;93.30;;;;;;4930883;29;20212;-74
2022/03/10 11:38:01;;;;;;;11.63;4.63;;;14.70;93.60;;;;;;4933359;29;20205;-77
2022/03/10 11:40:45;;;;;;;12.87;5.10;;;14.90;93.70;;;;;;4915540;29;20326;-74
2022/03/10 11:43:17;;;;;;;11.17;4.90;;;15.00;93.90;;;;;;4919691;29;20232;-75
2022/03/10 11:45:44;;;;;;;10.17;4.30;;;15.10;93.80;;;;;;4929720;29;20612;-75
2022/03/10 11:48:35;;;;;;;10.03;4.47;;;15.20;93.80;;;;;;4931146;29;20656;-75
2022/03/10 11:51:13;;;;;;;12.47;4.83;;;15.30;93.50;;;;;;4931420;29;20652;-76
2022/03/10 11:54:04;;;;;;;9.47;4.30;;;15.30;93.60;;;;;;4931522;29;20225;-76
2022/03/10 11:57:07;;;;;;;10.83;5.20;;;15.40;92.70;;;;;;4914460;29;20216;-79
2022/03/10 11:59:50;;;;;;;11.87;4.33;;;15.30;92.90;;;;;;4926988;29;20203;-75
2022/03/10 12:02:44;;;;;;;10.10;4.03;;;15.20;93.40;;;;;;4934132;29;20660;-75
2022/03/10 12:05:15;;;;;;;8.33;4.47;;;15.40;93.60;;;;;;4910829;29;20234;-75
2022/03/10 12:07:50;;;;;;;10.67;4.57;;;15.40;92.80;;;;;;4933982;29;20342;-75
2022/03/10 12:10:19;;;;;;;9.83;3.90;;;15.40;93.10;;;;;;4934708;29;20243;-75
2022/03/10 12:12:47;;;;;;;8.73;4.13;;;15.60;92.90;;;;;;4937553;29;20225;-74
2022/03/10 12:15:43;;;;;;;9.57;4.40;;;15.60;92.90;;;;;;4938092;29;20209;-76
2022/03/10 12:18:32;;;;;;;9.73;4.10;;;15.50;93.00;;;;;;4936938;29;20213;-74
2022/03/10 12:21:00;;;;;;;7.67;3.70;;;15.60;92.60;;;;;;4934473;29;20271;-75
2022/03/10 12:23:29;;;;;;;9.57;4.13;;;15.50;92.70;;;;;;4937797;29;20284;-74
2022/03/10 12:26:00;;;;;;;11.30;4.83;;;15.50;92.70;;;;;;4936649;29;20212;-76
2022/03/10 12:28:31;;;;;;;8.17;3.83;;;15.60;92.90;;;;;;4937385;29;20629;-75
2022/03/10 12:31:08;;;;;;;7.10;3.43;;;15.70;93.30;;;;;;4938096;29;20880;-76
2022/03/10 12:33:40;;;;;;;8.73;4.40;;;15.70;92.60;;;;;;4937692;29;20319;-75
2022/03/10 12:36:08;;;;;;;9.17;3.93;;;15.80;93.10;;;;;;4938065;29;20209;-75
2022/03/10 12:38:40;;;;;;;13.27;4.37;;;15.90;92.40;;;;;;4937953;29;20279;-76
2022/03/10 12:41:09;;;;;;;9.07;3.63;;;15.80;92.30;;;;;;4937784;29;20217;-76
2022/03/10 12:43:36;;;;;;;8.10;3.43;;;15.80;92.60;;;;;;4937081;29;20280;-76
2022/03/10 12:46:04;;;;;;;8.07;3.27;;;15.90;92.70;;;;;;4937739;29;20680;-76
2022/03/10 12:48:37;;;;;;;10.17;4.03;;;16.00;92.60;;;;;;4937543;29;20209;-73
2022/03/10 12:51:04;;;;;;;8.23;3.87;;;16.00;92.30;;;;;;4937578;29;20248;-76
2022/03/10 12:53:33;;;;;;;7.50;3.60;;;16.10;92.80;;;;;;4937235;29;20233;-76
2022/03/10 12:56:00;;;;;;;8.13;4.03;;;16.10;92.40;;;;;;4937794;29;20264;-75
2022/03/10 12:58:32;;;;;;;10.30;3.77;;;16.10;92.20;;;;;;4938016;29;20204;-76
2022/03/10 13:01:10;;;;;;;8.47;3.63;;;16.10;92.40;;;;;;4937952;29;20213;-75
2022/03/10 13:03:37;;;;;;;7.87;3.60;;;16.10;92.70;;;;;;4937539;29;20691;-76
2022/03/10 13:06:09;;;;;;;8.43;4.00;;;16.20;92.50;;;;;;4936084;29;20209;-76
2022/03/10 13:08:40;;;;;;;8.87;3.60;;;16.30;92.90;;;;;;4928667;29;20197;-73
2022/03/10 13:11:08;;;;;;;8.13;4.10;;;16.20;92.10;;;;;;4933058;29;20237;-75
2022/03/10 13:13:36;;;;;;;9.37;4.27;;;16.20;92.00;;;;;;4935315;29;20249;-76
2022/03/10 13:16:05;;;;;;;9.93;4.53;;;16.20;92.00;;;;;;4936973;29;20269;-77
2022/03/10 13:18:40;;;;;;;8.83;3.70;;;16.10;91.80;;;;;;4937168;29;20231;-76
2022/03/10 13:21:07;;;;;;;6.97;3.43;;;16.20;92.30;;;;;;4936855;29;20212;-75
2022/03/10 13:23:34;;;;;;;12.53;4.03;;;16.30;91.60;;;;;;4934766;29;20232;-75
2022/03/10 13:26:01;;;;;;;7.97;3.70;;;16.20;91.30;;;;;;4936760;29;20205;-76
2022/03/10 13:28:28;;;;;;;8.00;3.30;;;16.20;91.90;;;;;;4936023;29;20201;-76
2022/03/10 13:30:57;;;;;;;9.77;3.87;;;16.30;92.30;;;;;;4936730;29;20228;-76
2022/03/10 13:33:26;;;;;;;8.17;3.80;;;16.40;91.40;;;;;;4935928;29;20235;-76
2022/03/10 13:35:57;;;;;;;7.83;3.80;;;16.50;91.00;;;;;;4936765;29;20325;-75
2022/03/10 13:38:26;;;;;;;6.50;3.23;;;16.30;91.00;;;;;;4936574;29;20212;-76
2022/03/10 13:41:01;;;;;;;8.13;3.63;;;16.30;90.50;;;;;;4936494;29;20212;-75
2022/03/10 13:43:31;;;;;;;6.33;2.93;;;16.40;91.50;;;;;;4935936;29;20227;-76
2022/03/10 13:46:14;;;;;;;6.80;3.10;;;16.60;91.00;;;;;;4936188;29;20216;-76
2022/03/10 13:48:46;;;;;;;5.30;2.87;;;16.60;89.20;;;;;;4928575;29;20554;-74
2022/03/10 13:51:14;;;;;;;7.93;3.00;;;16.60;90.30;;;;;;4933647;29;20288;-73
2022/03/10 13:53:53;;;;;;;7.07;3.07;;;16.60;88.90;;;;;;4934920;29;20819;-74
2022/03/10 13:56:28;;;;;;;6.20;3.03;;;16.70;87.90;;;;;;4934080;29;20205;-76
2022/03/10 13:58:55;;;;;;;6.57;3.20;;;16.70;88.00;;;;;;4934560;29;20208;-74
2022/03/10 14:01:25;;;;;;;7.17;3.33;;;16.70;87.70;;;;;;4933350;29;20775;-75
2022/03/10 14:03:54;;;;;;;7.00;3.60;;;16.50;85.20;;;;;;4931691;29;20588;-75
2022/03/10 14:06:21;;;;;;;6.33;3.17;;;16.60;86.80;;;;;;4930897;29;20564;-75
2022/03/10 14:08:49;;;;;;;8.20;3.30;;;16.60;86.20;;;;;;4933460;29;20205;-72
2022/03/10 14:11:16;;;;;;;6.27;3.10;;;16.70;85.90;;;;;;4933056;29;20284;-74
2022/03/10 14:13:43;;;;;;;7.10;3.43;;;16.70;85.60;;;;;;4934756;29;20233;-75
2022/03/10 14:16:15;;;;;;;6.87;3.30;;;16.70;85.90;;;;;;4934598;29;20212;-76
2022/03/10 14:18:47;;;;;;;6.57;3.40;;;16.70;86.10;;;;;;4933039;29;20561;-74
2022/03/10 14:21:14;;;;;;;7.47;3.50;;;16.80;86.50;;;;;;4934873;29;20295;-74
2022/03/10 14:23:41;;;;;;;8.37;3.70;;;16.80;86.10;;;;;;4934156;29;20229;-77
2022/03/10 14:26:12;;;;;;;5.73;2.73;;;16.70;86.50;;;;;;4933874;29;20247;-77
2022/03/10 14:28:42;;;;;;;5.63;2.97;;;16.80;87.40;;;;;;4933852;29;20671;-77
2022/03/10 14:31:13;;;;;;;6.93;3.20;;;16.80;86.60;;;;;;4933311;29;20232;-75
2022/03/10 14:33:40;;;;;;;7.20;3.10;;;16.70;86.20;;;;;;4932240;29;20563;-76
2022/03/10 14:36:12;;;;;;;5.77;3.07;;;16.60;85.50;;;;;;4934100;29;20660;-76
2022/03/10 14:38:40;;;;;;;9.97;3.13;;;16.70;86.10;;;;;;4934033;29;20256;-76
2022/03/10 14:41:08;;;;;;;6.50;3.33;;;16.70;86.40;;;;;;4932857;29;20300;-75
2022/03/10 14:43:36;;;;;;;7.60;3.47;;;16.80;84.70;;;;;;4931821;29;20601;-76
2022/03/10 14:46:03;;;;;;;8.07;3.57;;;16.80;84.10;;;;;;4931432;29;20307;-79
2022/03/10 14:48:30;;;;;;;7.17;3.57;;;16.60;86.20;;;;;;4933218;29;20675;-78
2022/03/10 14:50:57;;;;;;;7.53;3.50;;;16.60;85.00;;;;;;4933207;29;20228;-78
2022/03/10 14:53:26;;;;;;;8.70;3.40;;;16.60;85.00;;;;;;4934574;29;20231;-79
2022/03/10 14:55:53;;;;;;;7.77;3.27;;;16.60;84.30;;;;;;4972508;23;20239;-73
2022/03/10 14:58:19;;;;;;;8.53;3.90;;;16.70;85.00;;;;;;4972384;28;20214;-74
2022/03/10 15:00:46;;;;;;;8.43;3.60;;;16.70;83.70;;;;;;4966597;28;20201;-73
2022/03/10 15:03:13;;;;;;;8.97;4.17;;;16.70;83.80;;;;;;4972833;28;20231;-73
2022/03/10 15:05:40;;;;;;;9.53;3.77;;;16.60;84.00;;;;;;4972635;28;20207;-76
2022/03/10 15:08:07;;;;;;;8.10;3.80;;;16.60;82.90;;;;;;4971984;28;20211;-73
2022/03/10 15:10:35;;;;;;;9.83;3.40;;;16.60;82.30;;;;;;4970603;28;20238;-73
2022/03/10 15:13:03;;;;;;;7.67;3.47;;;16.60;82.30;;;;;;4954041;28;20223;-73
2022/03/10 15:15:32;;;;;;;10.27;3.80;;;16.60;82.20;;;;;;4955836;28;20294;-73
2022/03/10 15:18:00;;;;;;;7.57;3.50;;;16.60;81.00;;;;;;4963488;28;20212;-73
2022/03/10 15:20:27;;;;;;;10.40;4.33;;;16.50;82.20;;;;;;4970649;28;20210;-73
2022/03/10 15:22:58;;;;;;;9.57;3.60;;;16.50;81.50;;;;;;4972332;28;20231;-73
2022/03/10 15:25:26;;;;;;;8.87;3.93;;;16.60;81.30;;;;;;4973007;28;20297;-72
2022/03/10 15:27:55;;;;;;;6.80;4.00;;;16.60;81.50;;;;;;4972469;28;20542;-73
2022/03/10 15:30:22;;;;;;;9.23;3.80;;;16.60;81.80;;;;;;4971861;28;20255;-73
2022/03/10 15:32:49;;;;;;;8.30;3.63;;;16.50;82.00;;;;;;4972026;28;20238;-73
2022/03/10 15:35:17;;;;;;;9.73;3.37;;;16.40;81.90;;;;;;4965885;28;20207;-77
2022/03/10 15:37:45;;;;;;;8.47;3.83;;;16.40;82.10;;;;;;4971224;28;20213;-73
2022/03/10 15:40:13;;;;;;;11.37;4.37;;;16.40;80.80;;;;;;4971589;28;20232;-72
2022/03/10 15:42:41;;;;;;;10.80;4.47;;;16.30;81.50;;;;;;4971719;28;20243;-72
2022/03/10 15:45:10;;;;;;;10.60;4.40;;;16.20;80.10;;;;;;4971597;28;20206;-75
2022/03/10 15:47:37;;;;;;;10.43;4.30;;;16.20;80.20;;;;;;4975671;28;20254;-73
2022/03/10 15:50:05;;;;;;;9.97;3.97;;;16.30;80.70;;;;;;4975881;28;20227;-77
2022/03/10 15:52:32;;;;;;;8.80;4.30;;;16.20;80.40;;;;;;4960843;28;20220;-73
2022/03/10 15:55:00;;;;;;;11.53;4.00;;;16.20;79.90;;;;;;4956515;28;20223;-72
2022/03/10 15:57:29;;;;;;;11.00;4.37;;;16.20;80.40;;;;;;4975067;28;20223;-75
2022/03/10 15:59:56;;;;;;;10.43;4.13;;;16.30;79.30;;;;;;4967371;28;20215;-73
2022/03/10 16:02:24;;;;;;;11.90;4.70;;;16.30;78.90;;;;;;4967661;28;20220;-75
2022/03/10 16:04:51;;;;;;;9.07;4.10;;;16.30;78.50;;;;;;4955945;28;20659;-74
2022/03/10 16:07:19;;;;;;;9.03;4.10;;;16.20;78.50;;;;;;4959494;28;20219;-73
2022/03/10 16:09:46;;;;;;;10.67;4.20;;;16.10;79.40;;;;;;4969905;28;20598;-74
2022/03/10 16:12:13;;;;;;;7.97;3.93;;;16.10;80.00;;;;;;4976048;28;20239;-72
2022/03/10 16:14:40;;;;;;;8.80;4.27;;;16.10;80.70;;;;;;4975680;28;20555;-73
2022/03/10 16:17:08;;;;;;;9.23;4.30;;;16.10;80.90;;;;;;4975602;28;20207;-73
2022/03/10 16:19:36;;;;;;;11.80;4.70;;;16.20;80.00;;;;;;4975610;28;20215;-74
2022/03/10 16:22:03;;;;;;;10.53;4.53;;;16.10;80.00;;;;;;4974901;28;20221;-73
2022/03/10 16:24:30;;;;;;;11.63;4.27;;;16.20;79.60;;;;;;4975853;28;20215;-74
2022/03/10 16:26:58;;;;;;;9.80;4.50;;;16.10;79.40;;;;;;4957756;28;20578;-72
2022/03/10 16:29:28;;;;;;;11.17;4.57;;;16.10;80.30;;;;;;4955780;28;20231;-73
2022/03/10 16:31:56;;;;;;;10.83;4.80;;;16.00;78.20;;;;;;4955332;29;20291;-73
2022/03/10 16:34:23;;;;;;;11.37;4.60;;;16.00;78.70;;;;;;4955746;28;20228;-73
2022/03/10 16:36:51;;;;;;;11.73;5.10;;;16.00;79.30;;;;;;4968878;28;20207;-73
2022/03/10 16:39:18;;;;;;;10.33;4.63;;;15.90;79.40;;;;;;4975281;28;20732;-73
2022/03/10 16:41:45;;;;;;;12.90;5.00;;;15.80;79.20;;;;;;4967929;28;20591;-74
2022/03/10 16:44:13;;;;;;;11.33;4.83;;;15.70;78.70;;;;;;4955193;28;20232;-72
2022/03/10 16:46:40;;;;;;;8.97;4.13;;;15.70;79.70;;;;;;4968713;28;20214;-74
2022/03/10 16:49:07;;;;;;;11.13;4.63;;;15.60;79.70;;;;;;4975509;28;20273;-73
2022/03/10 16:51:34;;;;;;;12.83;4.60;;;15.50;79.70;;;;;;4974263;28;20235;-72
2022/03/10 16:54:02;;;;;;;9.97;4.53;;;15.50;79.80;;;;;;4974810;28;20234;-73
2022/03/10 16:56:30;;;;;;;10.13;4.43;;;15.40;80.10;;;;;;4974497;28;20221;-72
2022/03/10 16:58:57;;;;;;;11.07;4.77;;;15.40;80.10;;;;;;4965395;28;20204;-72
2022/03/10 17:01:25;;;;;;;10.33;4.80;;;15.30;80.50;;;;;;4955243;28;20216;-72
2022/03/10 17:03:51;;;;;;;12.60;5.27;;;15.20;81.20;;;;;;4967992;28;20253;-72
2022/03/10 17:06:18;;;;;;;10.37;4.47;;;15.10;80.90;;;;;;4974519;28;20213;-72
2022/03/10 17:08:45;;;;;;;11.80;5.10;;;15.10;81.10;;;;;;4975201;28;20211;-74
2022/03/10 17:11:13;;;;;;;10.07;4.30;;;15.00;81.40;;;;;;4974557;28;20238;-72
2022/03/10 17:13:40;;;;;;;10.73;4.13;;;14.90;81.70;;;;;;4975756;28;20234;-72
2022/03/10 17:16:07;;;;;;;12.33;5.27;;;14.80;82.30;;;;;;4963600;28;20207;-73
2022/03/10 17:18:35;;;;;;;12.87;4.50;;;14.70;82.20;;;;;;4956310;28;20212;-72
2022/03/10 17:21:02;;;;;;;9.53;4.13;;;14.70;82.20;;;;;;4956404;28;20647;-73
2022/03/10 17:23:29;;;;;;;11.00;4.90;;;14.60;82.70;;;;;;4956438;28;20232;-73
2022/03/10 17:25:56;;;;;;;10.00;4.37;;;14.60;82.70;;;;;;4956452;28;20216;-73
2022/03/10 17:28:24;;;;;;;8.57;4.30;;;14.50;82.90;;;;;;4956423;28;20545;-72
2022/03/10 17:30:51;;;;;;;10.40;3.90;;;14.50;83.00;;;;;;4956406;28;20232;-74
2022/03/10 17:33:18;;;;;;;11.13;4.37;;;14.30;82.90;;;;;;4959624;28;20591;-74
2022/03/10 17:35:45;;;;;;;14.07;4.27;;;14.30;83.70;;;;;;4956465;28;20231;-73
2022/03/10 17:38:12;;;;;;;7.57;3.87;;;14.20;83.30;;;;;;4956394;28;20212;-72
2022/03/10 17:40:39;;;;;;;9.63;4.27;;;14.20;84.00;;;;;;4956241;28;20671;-72
2022/03/10 17:43:06;;;;;;;9.93;4.20;;;14.10;84.30;;;;;;4956337;29;20228;-72
2022/03/10 17:45:35;;;;;;;11.50;4.73;;;14.00;83.70;;;;;;4956242;28;20579;-72
2022/03/10 17:48:02;;;;;;;11.97;4.63;;;13.90;84.20;;;;;;4955930;28;20303;-72
2022/03/10 17:50:30;;;;;;;10.33;3.93;;;13.80;84.00;;;;;;4959163;28;20200;-72
2022/03/10 17:52:57;;;;;;;11.23;4.00;;;13.80;84.10;;;;;;4955509;28;20770;-71
2022/03/10 17:55:24;;;;;;;8.10;3.70;;;13.60;84.30;;;;;;4955573;28;20218;-72
2022/03/10 17:57:51;;;;;;;13.77;4.87;;;13.50;84.80;;;;;;4955895;28;20212;-72
2022/03/10 18:00:18;;;;;;;11.17;4.27;;;13.50;84.70;;;;;;4955955;28;20212;-72
2022/03/10 18:02:47;;;;;;;13.33;5.43;;;13.40;84.10;;;;;;4955353;28;20263;-71
2022/03/10 18:05:14;;;;;;;12.13;5.03;;;13.40;84.40;;;;;;4955414;28;20684;-73
2022/03/10 18:07:41;;;;;;;13.00;5.00;;;13.30;84.80;;;;;;4955656;28;20208;-73
2022/03/10 18:10:10;;;;;;;13.37;4.90;;;13.10;85.80;;;;;;4958089;28;20230;-72
2022/03/10 18:12:37;;;;;;;11.90;4.30;;;13.10;85.10;;;;;;4955286;28;20243;-71
2022/03/10 18:15:05;;;;;;;11.00;4.37;;;13.10;85.20;;;;;;4955294;28;20570;-72
2022/03/10 18:17:32;;;;;;;11.53;4.70;;;13.00;86.40;;;;;;4955383;28;20208;-72
2022/03/10 18:20:00;;;;;;;11.20;5.00;;;12.80;85.70;;;;;;4955519;28;20671;-72
2022/03/10 18:22:28;;;;;;;11.60;4.93;;;12.80;85.10;;;;;;4954999;28;20712;-74
2022/03/10 18:24:55;;;;;;;11.83;5.00;;;12.80;85.80;;;;;;4953656;28;20282;-73
2022/03/10 18:27:21;;;;;;;11.93;4.97;;;12.60;85.70;;;;;;4971688;28;20681;-73
2022/03/10 18:29:48;;;;;;;11.53;4.90;;;12.50;86.30;;;;;;4974445;28;20720;-73
2022/03/10 18:32:15;;;;;;;13.80;5.03;;;12.40;86.90;;;;;;4974396;28;20253;-73
2022/03/10 18:34:42;;;;;;;13.07;5.30;;;12.30;89.20;;;;;;4974166;28;20211;-73
2022/03/10 18:37:10;;;;;;;11.93;5.30;;;12.30;87.80;;;;;;4974276;28;20215;-73
2022/03/10 18:39:37;;;;;;;13.20;5.33;;;12.30;87.80;;;;;;4974426;28;20302;-74
2022/03/10 18:42:04;;;;;;;11.50;4.60;;;12.20;88.30;;;;;;4966035;28;20215;-73
2022/03/10 18:44:31;;;;;;;11.83;4.73;;;12.10;90.20;;;;;;4968147;28;20663;-73
2022/03/10 18:46:58;;;;;;;10.03;4.23;;;12.10;89.70;;;;;;4974193;28;20207;-72
2022/03/10 18:49:31;;;;;;;9.53;4.30;;;12.00;90.90;;;;;;4974205;28;20670;-73
2022/03/10 18:51:59;;;;;;;9.03;4.57;;;11.90;90.90;;;;;;4974344;28;20246;-74
2022/03/10 18:54:27;;;;;;;14.90;4.60;;;11.80;91.70;;;;;;4974266;28;20211;-74
2022/03/10 18:56:53;;;;;;;10.77;4.33;;;11.60;92.50;;;;;;4974034;28;20203;-74
2022/03/10 18:59:20;;;;;;;10.90;4.60;;;11.50;91.90;;;;;;4959637;28;20575;-73
2022/03/10 19:01:48;;;;;;;12.13;4.53;;;11.30;92.20;;;;;;4953691;28;20223;-74
2022/03/10 19:04:14;;;;;;;10.63;4.37;;;11.20;92.50;;;;;;4953269;28;20232;-73
2022/03/10 19:06:41;;;;;;;15.03;4.80;;;11.10;93.00;;;;;;4965463;28;20207;-75
2022/03/10 19:09:08;;;;;;;11.07;5.20;;;10.90;93.10;;;;;;4954199;28;20544;-75
2022/03/10 19:11:36;;;;;;;13.77;4.80;;;10.90;93.90;;;;;;4954297;28;20426;-73
2022/03/10 19:14:04;;;;;;;17.10;5.43;;;10.70;94.10;;;;;;4953720;29;20238;-75
2022/03/10 19:16:31;;;;;;;10.80;4.30;;;10.50;94.50;;;;;;4954123;28;20243;-73
2022/03/10 19:18:58;;;;;;;12.83;4.53;;;10.50;94.70;;;;;;4954396;28;20215;-76
2022/03/10 19:21:25;;;;;;;10.40;4.53;;;10.40;94.60;;;;;;4957130;28;20681;-74
2022/03/10 19:23:52;;;;;;;13.43;5.00;;;10.20;94.60;;;;;;4961226;28;20220;-73
2022/03/10 19:26:19;;;;;;;10.77;4.57;;;10.30;93.70;;;;;;4971879;28;20207;-74
2022/03/10 19:28:47;;;;;;;10.53;5.03;;;10.20;94.70;;;;;;4976134;28;20202;-75
2022/03/10 19:31:14;;;;;;;12.03;4.63;;;10.00;95.10;;;;;;4975891;28;20612;-73
2022/03/10 19:33:41;;;;;;;11.83;4.57;;;9.80;95.90;;;;;;4976555;28;20230;-74
2022/03/10 19:36:08;;;;;;;12.17;4.47;;;9.70;96.40;;;;;;4977361;28;20214;-75
2022/03/10 19:38:35;;;;;;;12.50;4.73;;;9.60;96.50;;;;;;4976838;28;20210;-75
2022/03/10 19:41:03;;;;;;;15.33;5.87;;;9.60;96.60;;;;;;4970562;28;20200;-75
2022/03/10 19:43:31;;;;;;;17.40;6.13;;;9.40;96.80;;;;;;4958438;28;20239;-74
2022/03/10 19:45:59;;;;;;;10.37;3.97;;;9.30;96.90;;;;;;4958294;28;20208;-75
2022/03/10 19:48:26;;;;;;;14.80;5.77;;;9.20;96.90;;;;;;4958267;28;20214;-75
2022/03/10 19:50:53;;;;;;;15.13;4.97;;;9.20;96.80;;;;;;4957956;28;20286;-75
2022/03/10 19:53:20;;;;;;;12.20;4.77;;;9.10;97.20;;;;;;4957844;28;20235;-74
2022/03/10 19:55:48;;;;;;;14.20;5.63;;;9.00;97.30;;;;;;4957912;28;20245;-73
2022/03/10 19:58:15;;;;;;;12.43;5.60;;;9.10;98.10;;;;;;4966017;28;20199;-74
2022/03/10 20:00:42;;;;;;;11.23;4.63;;;8.90;97.90;;;;;;4958156;28;20266;-74
2022/03/10 20:03:10;;;;;;;15.67;5.93;;;8.90;98.00;;;;;;4958042;28;20295;-75
2022/03/10 20:05:40;;;;;;;14.30;5.77;;;8.80;98.10;;;;;;4957924;28;20302;-74
2022/03/10 20:08:07;;;;;;;15.57;6.53;;;8.70;98.30;;;;;;4957425;28;20325;-75
2022/03/10 20:10:34;;;;;;;14.87;5.80;;;8.70;98.60;;;;;;4957404;28;20208;-74
2022/03/10 20:13:01;;;;;;;12.57;6.00;;;8.70;98.70;;;;;;4973738;28;20237;-74
2022/03/10 20:15:29;;;;;;;17.60;6.70;;;8.60;98.80;;;;;;4965430;28;20204;-74
2022/03/10 20:17:56;;;;;;;13.77;6.83;;;8.40;99.10;;;;;;4976282;28;20207;-73
2022/03/10 20:20:24;;;;;;;16.03;6.23;;;8.30;99.20;;;;;;4976236;28;20207;-74
2022/03/10 20:22:51;;;;;;;17.83;7.23;;;8.20;99.60;;;;;;4975865;28;20223;-73
2022/03/10 20:25:18;;;;;;;15.63;6.33;;;8.00;99.90;;;;;;4976137;28;20203;-73
2022/03/10 20:27:45;;;;;;;15.70;7.03;;;8.10;99.90;;;;;;4975707;28;20206;-75
2022/03/10 20:30:13;;;;;;;16.80;6.87;;;8.10;99.40;;;;;;4976348;28;20210;-73
2022/03/10 20:32:40;;;;;;;14.70;6.77;;;8.10;99.40;;;;;;4971434;28;20227;-74
2022/03/10 20:35:08;;;;;;;14.87;6.20;;;8.00;99.50;;;;;;4956895;28;20219;-74
2022/03/10 20:37:37;;;;;;;15.93;6.67;;;7.90;99.80;;;;;;4956498;28;20227;-73
2022/03/10 20:40:04;;;;;;;15.00;6.07;;;7.90;99.90;;;;;;4956778;28;20663;-74
2022/03/10 20:42:31;;;;;;;16.77;6.80;;;7.90;99.90;;;;;;4956561;28;20224;-73
2022/03/10 20:44:58;;;;;;;15.50;6.20;;;7.80;99.90;;;;;;4956392;28;20208;-74
2022/03/10 20:47:25;;;;;;;18.53;7.17;;;7.80;99.90;;;;;;4956421;28;20303;-73
2022/03/10 20:49:52;;;;;;;13.03;6.17;;;7.70;99.90;;;;;;4959894;28;20212;-74
2022/03/10 20:52:18;;;;;;;16.47;6.50;;;7.70;99.90;;;;;;4956078;28;20240;-74
2022/03/10 20:54:47;;;;;;;16.00;6.47;;;7.70;99.90;;;;;;4956512;28;20578;-74
2022/03/10 20:57:14;;;;;;;16.00;6.00;;;7.60;99.90;;;;;;4959164;28;20666;-74
2022/03/10 20:59:40;;;;;;;13.73;6.03;;;7.70;98.90;;;;;;4961276;28;20200;-73
2022/03/10 21:02:07;;;;;;;14.53;6.00;;;7.70;99.90;;;;;;4975220;28;20214;-73
2022/03/10 21:04:36;;;;;;;17.13;6.97;;;7.80;99.90;;;;;;4975456;28;20210;-73
2022/03/10 21:07:03;;;;;;;17.57;6.80;;;7.80;99.70;;;;;;4975339;28;20211;-74
2022/03/10 21:09:29;;;;;;;15.37;6.53;;;7.80;98.80;;;;;;4976182;28;20203;-74
2022/03/10 21:11:58;;;;;;;13.87;5.37;;;7.90;97.40;;;;;;4974856;28;20219;-74
2022/03/10 21:14:25;;;;;;;11.57;5.67;;;8.10;96.00;;;;;;4969925;28;20225;-74
2022/03/10 21:16:52;;;;;;;11.07;4.87;;;8.20;95.60;;;;;;4966099;28;20215;-73
2022/03/10 21:19:19;;;;;;;12.50;5.40;;;8.30;95.60;;;;;;4956980;28;20222;-74
2022/03/10 21:21:47;;;;;;;18.33;5.87;;;8.40;95.20;;;;;;4975490;28;20322;-73
2022/03/10 21:24:14;;;;;;;13.93;5.70;;;8.50;94.70;;;;;;4971053;28;20248;-73
2022/03/10 21:26:41;;;;;;;14.47;5.33;;;8.60;94.20;;;;;;4961415;28;20667;-73
2022/03/10 21:29:09;;;;;;;13.97;5.53;;;8.90;93.40;;;;;;4959430;28;20208;-73
2022/03/10 21:31:36;;;;;;;17.67;5.37;;;9.00;93.80;;;;;;4955713;28;20208;-73
2022/03/10 21:34:03;;;;;;;12.13;4.90;;;9.00;93.20;;;;;;4969510;28;20315;-73
2022/03/10 21:36:33;;;;;;;14.43;4.80;;;9.10;92.90;;;;;;4966033;28;20210;-74